Time;durP1;ratioP1;P1;durP2;ratioP2;P2;SDS_P1;SDS_P2;PMS_P1;PMS_P2;Temp;Humidity;BMP_temperature;BMP_pressure;BME280_temperature;BME280_humidity;BME280_pressure;Samples;Min_cycle;Max_cycle;Signal;HPM_P1;HPM_P2
2022/10/22 00:00:10;;;;;;;;;;;20.50;99.90;;;;;;5062559;28;20492;-65
2022/10/22 00:02:37;;;;;;;0.70;0.70;;;20.50;99.90;;;;;;5070642;28;19920;-67
2022/10/22 00:05:06;;;;;;;3.10;1.67;;;20.50;99.90;;;;;;5073437;28;20051;-66
2022/10/22 00:07:33;;;;;;;1.52;1.23;;;20.50;99.90;;;;;;5067792;28;20408;-66
2022/10/22 00:10:00;;;;;;;1.95;1.17;;;20.50;99.90;;;;;;5074505;28;20049;-66
2022/10/22 00:12:28;;;;;;;1.58;1.08;;;20.50;99.90;;;;;;5085078;28;20051;-65
2022/10/22 00:14:55;;;;;;;0.50;0.50;;;20.50;99.90;;;;;;5073539;28;20263;-67
2022/10/22 00:17:23;;;;;;;2.20;1.38;;;20.50;99.90;;;;;;5080270;28;20033;-66
2022/10/22 00:19:50;;;;;;;0.50;0.50;;;20.50;99.90;;;;;;5073846;28;20045;-66
2022/10/22 00:22:17;;;;;;;1.30;1.23;;;20.50;99.90;;;;;;5057370;28;20493;-66
2022/10/22 00:24:44;;;;;;;0.73;0.73;;;20.50;99.90;;;;;;5068822;28;20788;-65
2022/10/22 00:27:13;;;;;;;0.50;0.50;;;20.50;99.90;;;;;;5071035;28;20051;-66
2022/10/22 00:29:40;;;;;;;0.50;0.50;;;20.50;99.90;;;;;;5061162;28;20051;-68
2022/10/22 00:32:08;;;;;;;0.50;0.50;;;20.50;99.90;;;;;;5059233;28;20617;-64
2022/10/22 00:34:35;;;;;;;0.30;0.30;;;20.50;99.90;;;;;;5066954;28;20044;-65
2022/10/22 00:37:02;;;;;;;0.52;0.52;;;20.50;99.90;;;;;;5060529;28;20044;-65
2022/10/22 00:39:29;;;;;;;0.68;0.68;;;20.50;99.90;;;;;;5084823;28;20145;-65
2022/10/22 00:41:58;;;;;;;1.00;0.95;;;20.50;99.90;;;;;;5076690;28;20045;-65
2022/10/22 00:44:59;;;;;;;2.63;1.20;;;20.50;99.90;;;;;;5076554;28;20045;-64
2022/10/22 00:48:01;;;;;;;0.70;0.70;;;20.50;99.90;;;;;;5072504;28;20056;-65
2022/10/22 00:50:46;;;;;;;0.70;0.70;;;20.50;99.90;;;;;;5072263;28;20048;-63
2022/10/22 00:53:18;;;;;;;0.40;0.40;;;20.50;99.90;;;;;;5072424;28;20055;-65
2022/10/22 00:55:50;;;;;;;0.65;0.65;;;20.50;99.90;;;;;;5088680;28;20058;-68
2022/10/22 00:58:21;;;;;;;3.40;1.80;;;20.50;99.90;;;;;;5083707;28;20067;-64
2022/10/22 01:00:49;;;;;;;0.60;0.60;;;20.50;99.90;;;;;;5085256;28;20506;-64
2022/10/22 01:03:16;;;;;;;0.50;0.50;;;20.50;99.90;;;;;;5085594;28;20519;-65
2022/10/22 01:05:57;;;;;;;0.38;0.38;;;20.40;99.90;;;;;;5075837;28;20055;-68
2022/10/22 01:08:48;;;;;;;0.95;0.88;;;20.40;99.90;;;;;;5077086;28;20412;-66
2022/10/22 01:11:49;;;;;;;0.40;0.40;;;20.50;99.90;;;;;;5068266;28;20041;-65
2022/10/22 01:14:41;;;;;;;0.50;0.50;;;20.40;99.90;;;;;;5078888;28;20469;-66
2022/10/22 01:17:18;;;;;;;0.80;0.80;;;20.40;99.90;;;;;;5070086;28;20053;-67
2022/10/22 01:20:02;;;;;;;0.80;0.80;;;20.40;99.90;;;;;;5065220;28;20049;-67
2022/10/22 01:22:36;;;;;;;1.13;1.02;;;20.40;99.90;;;;;;5071813;28;20047;-66
2022/10/22 01:25:22;;;;;;;1.75;1.58;;;20.40;99.90;;;;;;5053960;28;20040;-66
2022/10/22 01:28:01;;;;;;;1.10;1.00;;;20.40;99.90;;;;;;5076415;28;20060;-67
2022/10/22 01:30:28;;;;;;;0.68;0.68;;;20.40;99.90;;;;;;5071964;28;20048;-66
2022/10/22 01:33:02;;;;;;;0.65;0.65;;;20.40;99.90;;;;;;5065199;28;20056;-66
2022/10/22 01:35:43;;;;;;;0.30;0.30;;;20.40;99.90;;;;;;5082451;28;20889;-67
2022/10/22 01:38:18;;;;;;;1.45;1.08;;;20.40;99.90;;;;;;5056950;28;20060;-67
2022/10/22 01:40:47;;;;;;;0.70;0.70;;;20.40;99.90;;;;;;5074776;28;20059;-66
2022/10/22 01:43:14;;;;;;;0.85;0.85;;;20.40;99.90;;;;;;5053714;28;20045;-67
2022/10/22 01:45:47;;;;;;;0.63;0.63;;;20.40;99.90;;;;;;5074677;28;20492;-65
2022/10/22 01:48:48;;;;;;;3.28;1.77;;;20.40;99.90;;;;;;5073196;28;20052;-67
2022/10/22 01:51:56;;;;;;;1.85;1.13;;;20.40;99.90;;;;;;5069661;28;20048;-66
2022/10/22 01:54:44;;;;;;;2.22;1.17;;;20.40;99.90;;;;;;5071439;28;20044;-66
2022/10/22 01:57:32;;;;;;;0.38;0.38;;;20.40;99.90;;;;;;5063832;28;20500;-68
2022/10/22 02:00:07;;;;;;;0.50;0.50;;;20.40;99.90;;;;;;5069913;28;20052;-65
2022/10/22 02:02:56;;;;;;;0.65;0.65;;;20.40;99.90;;;;;;5077386;28;20044;-63
2022/10/22 02:05:47;;;;;;;0.40;0.40;;;20.40;99.90;;;;;;5079742;28;20048;-66
2022/10/22 02:08:19;;;;;;;0.40;0.40;;;20.40;99.90;;;;;;5078039;28;20056;-66
2022/10/22 02:10:48;;;;;;;0.65;0.65;;;20.40;99.90;;;;;;5058958;28;20048;-66
2022/10/22 02:13:21;;;;;;;0.77;0.77;;;20.40;99.90;;;;;;5077875;28;20055;-65
2022/10/22 02:15:52;;;;;;;1.23;1.00;;;20.40;99.90;;;;;;5064651;28;20528;-66
2022/10/22 02:18:23;;;;;;;1.38;0.80;;;20.40;99.90;;;;;;5079970;28;20403;-67
2022/10/22 02:20:50;;;;;;;1.30;1.20;;;20.40;99.90;;;;;;5070830;28;20051;-65
2022/10/22 02:23:19;;;;;;;0.70;0.70;;;20.40;99.90;;;;;;5082290;28;20047;-64
2022/10/22 02:25:52;;;;;;;0.63;0.63;;;20.40;99.90;;;;;;5062728;28;20560;-66
2022/10/22 02:28:28;;;;;;;0.65;0.65;;;20.40;99.90;;;;;;5083664;28;20044;-65
2022/10/22 02:31:04;;;;;;;0.45;0.45;;;20.30;99.90;;;;;;5072065;28;20055;-65
2022/10/22 02:33:36;;;;;;;0.95;0.60;;;20.40;99.90;;;;;;5069727;28;20048;-65
2022/10/22 02:36:05;;;;;;;0.47;0.47;;;20.30;99.90;;;;;;5076207;28;20047;-66
2022/10/22 02:38:34;;;;;;;0.55;0.55;;;20.40;99.90;;;;;;5084922;28;20044;-66
2022/10/22 02:41:02;;;;;;;0.40;0.40;;;20.40;99.90;;;;;;5064332;28;20041;-64
2022/10/22 02:43:29;;;;;;;0.70;0.70;;;20.40;99.90;;;;;;5084164;28;20048;-65
2022/10/22 02:45:56;;;;;;;0.50;0.50;;;20.40;99.90;;;;;;5069483;28;20080;-64
2022/10/22 02:48:24;;;;;;;0.98;0.82;;;20.40;99.90;;;;;;5073271;28;20056;-64
2022/10/22 02:50:51;;;;;;;0.55;0.55;;;20.30;99.90;;;;;;5051604;28;20060;-66
2022/10/22 02:53:18;;;;;;;0.50;0.50;;;20.40;99.90;;;;;;5081458;28;20511;-66
2022/10/22 02:55:45;;;;;;;0.50;0.50;;;20.30;99.90;;;;;;5075983;28;20044;-66
2022/10/22 02:58:12;;;;;;;1.27;0.95;;;20.30;99.90;;;;;;5066367;28;20036;-66
2022/10/22 03:00:40;;;;;;;0.30;0.30;;;20.30;99.90;;;;;;5086971;28;20138;-69
2022/10/22 03:03:07;;;;;;;;;;;20.30;99.90;;;;;;5097091;28;20052;-68
2022/10/22 03:05:34;;;;;;;0.50;0.50;;;20.30;99.90;;;;;;5083982;28;19931;-66
2022/10/22 03:08:02;;;;;;;0.70;0.70;;;20.30;99.90;;;;;;5074846;28;20044;-67
2022/10/22 03:10:29;;;;;;;0.50;0.50;;;20.30;99.90;;;;;;5078214;28;20052;-65
2022/10/22 03:12:57;;;;;;;0.40;0.40;;;20.30;99.90;;;;;;5072661;28;20048;-65
2022/10/22 03:15:24;;;;;;;0.52;0.52;;;20.30;99.90;;;;;;5068599;28;20049;-67
2022/10/22 03:17:51;;;;;;;0.68;0.68;;;20.30;99.90;;;;;;5052630;28;20044;-63
2022/10/22 03:20:18;;;;;;;0.68;0.68;;;20.30;99.90;;;;;;5080866;28;20044;-67
2022/10/22 03:22:46;;;;;;;0.35;0.35;;;20.30;99.90;;;;;;5084805;28;20063;-65
2022/10/22 03:25:18;;;;;;;0.98;0.98;;;20.30;99.90;;;;;;5048884;28;20045;-64
2022/10/22 03:27:46;;;;;;;0.50;0.50;;;20.30;99.90;;;;;;5073322;28;20044;-66
2022/10/22 03:30:13;;;;;;;0.50;0.50;;;20.30;99.90;;;;;;5057377;28;20057;-67
2022/10/22 03:32:40;;;;;;;0.43;0.43;;;20.30;99.90;;;;;;5073370;28;20538;-65
2022/10/22 03:35:08;;;;;;;0.50;0.50;;;20.30;99.90;;;;;;5081187;28;20594;-66
2022/10/22 03:37:36;;;;;;;0.40;0.40;;;20.30;99.90;;;;;;5074324;28;20044;-65
2022/10/22 03:40:06;;;;;;;0.30;0.30;;;20.30;99.90;;;;;;5059707;28;20041;-67
2022/10/22 03:42:33;;;;;;;0.70;0.70;;;20.30;99.90;;;;;;5069005;28;20047;-64
2022/10/22 03:45:00;;;;;;;1.55;1.13;;;20.30;99.90;;;;;;5076923;28;20052;-64
2022/10/22 03:47:27;;;;;;;2.92;1.55;;;20.30;99.90;;;;;;5069148;28;20125;-65
2022/10/22 03:49:55;;;;;;;0.90;0.90;;;20.30;99.90;;;;;;5079902;28;20411;-64
2022/10/22 03:52:22;;;;;;;0.50;0.50;;;20.30;99.90;;;;;;5074423;28;20048;-64
2022/10/22 03:54:49;;;;;;;0.40;0.40;;;20.30;99.90;;;;;;5057333;28;20059;-65
2022/10/22 03:57:16;;;;;;;1.10;0.77;;;20.30;99.90;;;;;;5077723;28;20052;-64
2022/10/22 03:59:45;;;;;;;0.70;0.70;;;20.30;99.90;;;;;;5062151;28;20047;-65
2022/10/22 04:02:12;;;;;;;3.25;0.70;;;20.30;99.90;;;;;;5066230;28;20064;-66
2022/10/22 04:04:40;;;;;;;;;;;20.30;99.90;;;;;;5073844;28;20037;-65
2022/10/22 04:07:07;;;;;;;0.30;0.30;;;20.20;99.90;;;;;;5066013;28;19920;-65
2022/10/22 04:09:35;;;;;;;0.50;0.50;;;20.20;99.90;;;;;;5078849;28;20475;-66
2022/10/22 04:12:05;;;;;;;0.47;0.47;;;20.30;99.90;;;;;;5078984;28;20048;-65
2022/10/22 04:14:32;;;;;;;0.50;0.50;;;20.30;99.90;;;;;;5081678;28;20499;-66
2022/10/22 04:17:00;;;;;;;2.80;0.98;;;20.20;99.90;;;;;;5073205;28;20055;-66
2022/10/22 04:19:27;;;;;;;0.82;0.82;;;20.20;99.90;;;;;;5068281;28;20048;-66
2022/10/22 04:21:58;;;;;;;0.88;0.88;;;20.20;99.90;;;;;;5069507;28;20594;-66
2022/10/22 04:24:26;;;;;;;0.30;0.30;;;20.20;99.90;;;;;;5051621;28;20044;-65
2022/10/22 04:26:54;;;;;;;0.43;0.43;;;20.20;99.90;;;;;;5083983;28;20415;-66
2022/10/22 04:29:21;;;;;;;;;;;20.20;99.90;;;;;;5077463;28;20574;-66
2022/10/22 04:31:48;;;;;;;0.30;0.30;;;20.20;99.90;;;;;;5070669;28;19931;-65
2022/10/22 04:34:16;;;;;;;0.50;0.50;;;20.30;99.90;;;;;;5069071;28;20048;-64
2022/10/22 04:36:43;;;;;;;1.25;1.15;;;20.20;99.90;;;;;;5074650;28;20044;-65
2022/10/22 04:39:10;;;;;;;0.50;0.50;;;20.20;99.90;;;;;;5078408;28;20040;-65
2022/10/22 04:41:38;;;;;;;0.90;0.90;;;20.20;99.90;;;;;;5070865;28;20043;-64
2022/10/22 04:44:06;;;;;;;;;;;20.20;99.90;;;;;;5079432;28;20506;-66
2022/10/22 04:46:39;;;;;;;0.50;0.50;;;20.20;99.90;;;;;;5077427;28;19931;-65
2022/10/22 04:49:06;;;;;;;0.90;0.90;;;20.20;99.90;;;;;;5054124;28;20047;-65
2022/10/22 04:51:34;;;;;;;0.30;0.30;;;20.20;99.90;;;;;;5055365;28;20512;-68
2022/10/22 04:54:01;;;;;;;0.30;0.30;;;20.20;99.90;;;;;;5068748;28;20051;-65
2022/10/22 04:56:30;;;;;;;2.60;1.20;;;20.20;99.90;;;;;;5066448;28;20048;-66
2022/10/22 04:59:05;;;;;;;1.83;1.23;;;20.20;99.90;;;;;;5067365;28;20047;-67
2022/10/22 05:01:38;;;;;;;0.40;0.40;;;20.20;99.90;;;;;;5068233;28;20515;-66
2022/10/22 05:04:12;;;;;;;0.55;0.55;;;20.20;99.90;;;;;;5063121;28;20037;-66
2022/10/22 05:06:40;;;;;;;0.47;0.47;;;20.20;99.90;;;;;;5068282;28;20048;-66
2022/10/22 05:09:11;;;;;;;0.52;0.52;;;20.20;99.90;;;;;;5084348;28;20447;-65
2022/10/22 05:11:42;;;;;;;1.35;0.82;;;20.20;99.90;;;;;;5065840;28;20049;-64
2022/10/22 05:14:10;;;;;;;0.50;0.50;;;20.30;99.90;;;;;;5066170;28;20061;-67
2022/10/22 05:16:37;;;;;;;1.15;1.05;;;20.30;99.90;;;;;;5075807;28;20132;-64
2022/10/22 05:19:05;;;;;;;0.85;0.77;;;20.30;99.90;;;;;;5070067;28;20071;-64
2022/10/22 05:21:33;;;;;;;0.40;0.40;;;20.30;99.90;;;;;;5059245;28;20045;-66
2022/10/22 05:24:00;;;;;;;0.40;0.40;;;20.30;99.90;;;;;;5074560;28;20045;-65
2022/10/22 05:26:28;;;;;;;2.03;1.27;;;20.30;99.90;;;;;;5068160;28;20059;-65
2022/10/22 05:28:55;;;;;;;;;;;20.30;99.90;;;;;;5080112;28;20119;-62
2022/10/22 05:31:23;;;;;;;0.60;0.60;;;20.30;99.90;;;;;;5066329;28;19927;-63
2022/10/22 05:33:50;;;;;;;2.00;0.95;;;20.30;99.90;;;;;;5074455;28;20055;-64
2022/10/22 05:36:20;;;;;;;0.55;0.55;;;20.30;99.90;;;;;;5076099;28;20432;-63
2022/10/22 05:38:48;;;;;;;0.43;0.43;;;20.30;99.90;;;;;;5077782;28;20054;-65
2022/10/22 05:41:18;;;;;;;0.50;0.50;;;20.30;99.90;;;;;;5076946;28;20044;-66
2022/10/22 05:43:46;;;;;;;0.45;0.45;;;20.30;99.90;;;;;;5057150;28;20047;-69
2022/10/22 05:46:15;;;;;;;;;;;20.30;99.90;;;;;;5069360;28;20087;-66
2022/10/22 05:48:53;;;;;;;0.40;0.40;;;20.40;99.90;;;;;;5083338;28;19920;-69
2022/10/22 05:51:21;;;;;;;0.68;0.68;;;20.40;99.90;;;;;;5052373;28;20052;-66
2022/10/22 05:53:54;;;;;;;0.30;0.30;;;20.40;99.90;;;;;;5069597;28;20519;-65
2022/10/22 05:56:23;;;;;;;0.55;0.55;;;20.30;99.90;;;;;;5048803;28;20049;-66
2022/10/22 05:58:50;;;;;;;3.60;1.52;;;20.30;99.90;;;;;;5077911;28;20261;-65
2022/10/22 06:01:23;;;;;;;0.52;0.52;;;20.30;99.90;;;;;;5066967;28;20048;-65
2022/10/22 06:03:59;;;;;;;0.40;0.40;;;20.30;99.90;;;;;;5068005;28;20083;-64
2022/10/22 06:06:35;;;;;;;0.60;0.60;;;20.40;99.90;;;;;;5045568;28;20048;-66
2022/10/22 06:09:16;;;;;;;0.60;0.52;;;20.40;99.90;;;;;;5070199;28;20315;-67
2022/10/22 06:11:45;;;;;;;0.30;0.30;;;20.40;99.90;;;;;;5045420;28;20045;-67
2022/10/22 06:14:12;;;;;;;0.40;0.40;;;20.40;99.90;;;;;;5045503;28;20056;-67
2022/10/22 06:16:40;;;;;;;0.50;0.50;;;20.40;99.90;;;;;;5049598;28;20631;-64
2022/10/22 06:19:08;;;;;;;0.50;0.50;;;20.40;99.90;;;;;;5047870;28;20389;-64
2022/10/22 06:21:35;;;;;;;0.35;0.35;;;20.40;99.90;;;;;;5063207;28;20048;-67
2022/10/22 06:24:03;;;;;;;0.38;0.38;;;20.40;99.90;;;;;;5062328;28;20052;-68
2022/10/22 06:26:31;;;;;;;;;;;20.40;99.90;;;;;;5068822;28;20055;-66
2022/10/22 06:28:58;;;;;;;0.65;0.65;;;20.40;99.90;;;;;;5062545;28;19995;-66
2022/10/22 06:31:26;;;;;;;4.22;1.45;;;20.40;99.90;;;;;;5072098;28;20508;-67
2022/10/22 06:33:55;;;;;;;1.27;0.98;;;20.40;99.90;;;;;;5073230;28;20040;-65
2022/10/22 06:36:23;;;;;;;0.40;0.40;;;20.40;99.90;;;;;;5070547;28;20535;-65
2022/10/22 06:38:52;;;;;;;0.40;0.40;;;20.40;99.90;;;;;;5063167;28;20488;-62
2022/10/22 06:41:20;;;;;;;1.75;0.95;;;20.00;99.90;;;;;;5075926;28;20049;-65
2022/10/22 06:43:53;;;;;;;0.55;0.55;;;19.50;99.90;;;;;;5076053;28;20075;-66
2022/10/22 06:46:22;;;;;;;0.43;0.43;;;19.40;99.90;;;;;;5070850;28;20051;-66
2022/10/22 06:48:58;;;;;;;0.75;0.75;;;19.40;99.90;;;;;;5089582;28;20059;-65
2022/10/22 06:51:26;;;;;;;0.80;0.80;;;19.50;99.90;;;;;;5085712;28;20062;-66
2022/10/22 06:53:57;;;;;;;0.50;0.50;;;19.70;99.90;;;;;;5071071;28;20300;-66
2022/10/22 06:56:26;;;;;;;6.55;1.65;;;19.80;99.90;;;;;;5084526;28;20475;-69
2022/10/22 06:58:56;;;;;;;0.55;0.55;;;19.80;99.90;;;;;;5055136;28;20051;-67
2022/10/22 07:01:30;;;;;;;0.55;0.55;;;19.90;99.90;;;;;;5075266;28;20041;-65
2022/10/22 07:03:58;;;;;;;0.70;0.70;;;19.90;99.90;;;;;;5071678;28;20040;-65
2022/10/22 07:06:27;;;;;;;1.17;0.98;;;20.00;99.90;;;;;;5075944;28;20052;-64
2022/10/22 07:08:56;;;;;;;0.52;0.52;;;20.00;99.90;;;;;;5046765;28;20049;-64
2022/10/22 07:11:26;;;;;;;1.00;0.95;;;20.10;99.90;;;;;;5065169;28;20053;-66
2022/10/22 07:13:55;;;;;;;0.52;0.52;;;20.10;99.90;;;;;;5068657;28;20519;-65
2022/10/22 07:16:23;;;;;;;0.40;0.40;;;20.10;99.90;;;;;;5074565;28;20520;-65
2022/10/22 07:18:57;;;;;;;4.65;2.50;;;20.10;99.90;;;;;;5071704;28;20480;-66
2022/10/22 07:21:25;;;;;;;6.85;1.67;;;20.10;99.90;;;;;;5075925;28;20048;-62
2022/10/22 07:23:52;;;;;;;1.00;1.00;;;20.10;99.90;;;;;;5069179;28;20045;-66
2022/10/22 07:26:19;;;;;;;0.50;0.50;;;20.10;99.90;;;;;;5054059;28;20055;-65
2022/10/22 07:28:47;;;;;;;0.43;0.43;;;20.20;99.90;;;;;;5074813;28;20053;-63
2022/10/22 07:31:16;;;;;;;1.45;1.08;;;20.20;99.90;;;;;;5080730;28;20067;-63
2022/10/22 07:33:44;;;;;;;1.15;1.05;;;20.20;99.90;;;;;;5055478;28;20067;-63
2022/10/22 07:36:16;;;;;;;;;;;20.20;99.90;;;;;;5052492;28;20048;-62
2022/10/22 07:38:48;;;;;;;0.63;0.63;;;20.30;99.90;;;;;;5064911;28;19929;-65
2022/10/22 07:41:16;;;;;;;1.20;0.98;;;20.30;99.90;;;;;;5071197;28;20040;-65
2022/10/22 07:43:44;;;;;;;1.65;1.45;;;20.30;99.90;;;;;;5065548;28;20617;-60
2022/10/22 07:46:11;;;;;;;;;;;20.40;99.90;;;;;;5061823;28;20535;-59
2022/10/22 07:48:38;;;;;;;2.45;1.55;;;20.50;99.90;;;;;;5065213;28;19928;-63
2022/10/22 07:51:06;;;;;;;1.30;1.20;;;20.50;99.90;;;;;;5047307;28;20095;-66
2022/10/22 07:53:33;;;;;;;4.18;2.55;;;20.50;99.90;;;;;;5064585;28;20473;-65
2022/10/22 07:56:00;;;;;;;1.35;1.00;;;20.50;99.90;;;;;;5066546;28;20060;-63
2022/10/22 07:58:28;;;;;;;5.53;2.60;;;20.50;99.90;;;;;;5045901;28;20068;-63
2022/10/22 08:00:57;;;;;;;0.70;0.70;;;20.50;99.90;;;;;;5071882;28;20044;-66
2022/10/22 08:03:25;;;;;;;1.00;0.98;;;20.60;99.90;;;;;;5064397;28;20049;-66
2022/10/22 08:05:52;;;;;;;;;;;20.50;99.90;;;;;;5068778;28;20507;-65
2022/10/22 08:08:20;;;;;;;0.63;0.63;;;20.50;99.90;;;;;;5065542;28;20356;-66
2022/10/22 08:10:54;;;;;;;18.65;3.55;;;20.50;99.90;;;;;;5073965;28;20526;-65
2022/10/22 08:13:22;;;;;;;1.42;0.90;;;20.50;99.90;;;;;;5066418;28;20067;-61
2022/10/22 08:15:49;;;;;;;4.90;2.88;;;20.50;99.90;;;;;;5068546;28;20523;-62
2022/10/22 08:18:22;;;;;;;0.60;0.60;;;20.50;99.90;;;;;;5074145;28;20046;-65
2022/10/22 08:20:50;;;;;;;1.90;1.60;;;20.60;99.90;;;;;;5069880;28;20052;-64
2022/10/22 08:23:17;;;;;;;0.63;0.63;;;20.50;99.90;;;;;;5073670;28;20063;-63
2022/10/22 08:25:45;;;;;;;3.35;2.05;;;20.50;99.90;;;;;;5059785;28;20039;-65
2022/10/22 08:28:12;;;;;;;4.50;3.58;;;20.50;99.90;;;;;;5057361;28;20055;-66
2022/10/22 08:30:40;;;;;;;14.93;3.13;;;20.50;99.90;;;;;;5061546;28;20431;-65
2022/10/22 08:33:07;;;;;;;;;;;20.50;99.90;;;;;;5070748;28;20056;-65
2022/10/22 08:35:34;;;;;;;1.02;1.02;;;20.50;99.90;;;;;;5067685;28;19928;-61
2022/10/22 08:38:01;;;;;;;8.85;2.05;;;20.50;99.90;;;;;;5073405;28;20047;-65
2022/10/22 08:40:32;;;;;;;1.75;1.05;;;20.50;99.90;;;;;;5058468;28;20044;-64
2022/10/22 08:43:11;;;;;;;1.85;1.35;;;20.50;99.90;;;;;;5065305;28;20049;-65
2022/10/22 08:45:41;;;;;;;2.70;1.80;;;20.50;99.90;;;;;;5065793;28;20048;-65
2022/10/22 08:48:27;;;;;;;1.40;1.30;;;20.50;99.90;;;;;;5058855;28;20056;-64
2022/10/22 08:50:56;;;;;;;0.82;0.82;;;20.40;99.90;;;;;;5065030;28;20416;-63
2022/10/22 08:53:37;;;;;;;17.77;1.73;;;20.40;99.90;;;;;;5040691;28;20071;-64
2022/10/22 08:56:05;;;;;;;21.48;2.28;;;20.50;99.90;;;;;;5065505;28;20048;-65
2022/10/22 08:58:48;;;;;;;6.68;3.45;;;20.50;99.90;;;;;;5065583;28;20067;-66
2022/10/22 09:01:22;;;;;;;0.55;0.55;;;20.60;99.90;;;;;;5060277;28;20112;-58
2022/10/22 09:03:52;;;;;;;0.75;0.75;;;20.70;99.90;;;;;;5065825;28;20051;-65
2022/10/22 09:06:23;;;;;;;0.68;0.68;;;20.70;99.90;;;;;;5061525;28;20040;-65
2022/10/22 09:08:52;;;;;;;5.22;2.13;;;20.70;99.90;;;;;;5044329;28;20045;-58
2022/10/22 09:11:30;;;;;;;1.90;1.73;;;20.70;99.90;;;;;;5060948;28;20477;-62
2022/10/22 09:13:58;;;;;;;;;;;20.70;99.90;;;;;;5065329;28;20063;-66
2022/10/22 09:16:28;;;;;;;4.63;2.40;;;20.70;99.90;;;;;;5074124;28;19924;-66
2022/10/22 09:19:24;;;;;;;1.95;1.15;;;20.60;99.90;;;;;;5057760;28;20049;-65
2022/10/22 09:22:03;;;;;;;6.70;4.23;;;20.50;99.90;;;;;;5037800;28;20079;-64
2022/10/22 09:24:35;;;;;;;1.65;0.95;;;20.50;99.90;;;;;;5066592;28;20290;-64
2022/10/22 09:27:29;;;;;;;0.60;0.60;;;20.50;99.90;;;;;;5071443;28;20594;-68
2022/10/22 09:29:57;;;;;;;0.98;0.95;;;20.50;99.90;;;;;;5069723;28;20071;-65
2022/10/22 09:32:24;;;;;;;0.75;0.75;;;20.50;99.90;;;;;;5072852;28;20067;-64
2022/10/22 09:34:55;;;;;;;1.77;1.45;;;20.50;99.90;;;;;;5048820;28;20044;-64
2022/10/22 09:37:26;;;;;;;0.40;0.40;;;20.50;99.90;;;;;;5080052;28;20048;-63
2022/10/22 09:39:56;;;;;;;1.65;0.98;;;20.50;99.90;;;;;;5073734;28;20044;-66
2022/10/22 09:42:24;;;;;;;1.73;1.45;;;20.50;99.90;;;;;;5062349;28;20044;-66
2022/10/22 09:44:56;;;;;;;;;;;20.50;99.90;;;;;;5078913;28;20052;-65
2022/10/22 09:47:26;;;;;;;0.60;0.60;;;20.50;99.90;;;;;;5073625;28;19931;-64
2022/10/22 09:50:21;;;;;;;1.77;1.15;;;20.40;99.90;;;;;;5081004;28;20048;-66
2022/10/22 09:52:59;;;;;;;0.40;0.40;;;20.50;99.90;;;;;;5070028;28;20045;-65
2022/10/22 09:55:27;;;;;;;2.75;1.05;;;20.40;99.90;;;;;;5082367;28;20052;-67
2022/10/22 09:57:57;;;;;;;1.20;1.10;;;20.50;99.90;;;;;;5063993;28;20048;-65
2022/10/22 10:00:26;;;;;;;1.45;1.05;;;20.50;99.90;;;;;;5064741;28;20045;-66
2022/10/22 10:02:58;;;;;;;0.98;0.98;;;20.40;99.90;;;;;;5077177;28;20159;-65
2022/10/22 10:05:32;;;;;;;2.40;1.45;;;20.40;99.90;;;;;;5070427;28;20041;-64
2022/10/22 10:08:11;;;;;;;2.05;1.00;;;20.40;99.90;;;;;;5070141;28;20048;-67
2022/10/22 10:10:55;;;;;;;6.13;2.15;;;20.50;99.90;;;;;;5061316;28;20400;-65
2022/10/22 10:13:43;;;;;;;0.55;0.55;;;20.50;99.90;;;;;;5071855;28;20064;-63
2022/10/22 10:16:26;;;;;;;3.33;2.08;;;20.50;99.90;;;;;;5077594;28;21011;-67
2022/10/22 10:18:57;;;;;;;0.50;0.50;;;20.40;99.90;;;;;;5066320;28;20048;-67
2022/10/22 10:21:44;;;;;;;2.08;1.52;;;20.50;99.90;;;;;;5075236;28;20059;-64
2022/10/22 10:24:24;;;;;;;;;;;20.50;99.90;;;;;;5052151;28;20078;-62
2022/10/22 10:27:35;;;;;;;0.70;0.70;;;20.50;99.90;;;;;;5078361;28;19928;-65
2022/10/22 10:30:17;;;;;;;0.50;0.50;;;20.40;99.90;;;;;;5006860;28;20077;-65
2022/10/22 10:33:14;;;;;;;1.92;1.70;;;20.50;99.90;;;;;;5007071;28;20046;-65
2022/10/22 10:35:58;;;;;;;0.95;0.68;;;20.50;99.90;;;;;;5006262;28;20548;-66
2022/10/22 10:38:39;;;;;;;5.47;2.08;;;20.50;99.90;;;;;;5008059;28;20116;-65
2022/10/22 10:41:15;;;;;;;0.50;0.50;;;20.40;99.90;;;;;;5007684;28;20062;-64
2022/10/22 10:43:54;;;;;;;3.20;2.40;;;20.40;99.90;;;;;;5001501;28;20550;-66
2022/10/22 10:46:32;;;;;;;1.80;1.05;;;20.50;99.90;;;;;;5007238;28;20053;-65
2022/10/22 10:49:28;;;;;;;3.03;1.27;;;20.40;99.90;;;;;;5008016;28;20053;-66
2022/10/22 10:52:01;;;;;;;0.45;0.45;;;20.40;99.90;;;;;;5006184;28;20065;-64
2022/10/22 10:54:44;;;;;;;0.40;0.40;;;20.40;99.90;;;;;;5008076;28;20065;-63
2022/10/22 10:57:18;;;;;;;3.30;1.70;;;20.40;99.90;;;;;;5008161;28;20062;-67
2022/10/22 11:00:03;;;;;;;1.30;0.88;;;20.40;99.90;;;;;;4990558;28;20558;-67
2022/10/22 11:02:37;;;;;;;1.05;0.82;;;20.40;99.90;;;;;;5066280;28;20071;-62
2022/10/22 11:05:43;;;;;;;0.50;0.50;;;20.40;99.90;;;;;;5058931;28;20060;-64
2022/10/22 11:08:21;;;;;;;3.00;1.10;;;20.40;99.90;;;;;;5001456;28;20058;-65
2022/10/22 11:11:32;;;;;;;1.05;1.00;;;20.40;99.90;;;;;;5058671;28;20052;-63
2022/10/22 11:14:12;;;;;;;1.10;0.88;;;20.40;99.90;;;;;;5063567;22;20053;-62
2022/10/22 11:16:52;;;;;;;0.68;0.68;;;20.40;99.90;;;;;;5074405;28;20041;-66
2022/10/22 11:19:35;;;;;;;0.63;0.63;;;20.40;99.90;;;;;;5076603;28;20048;-63
2022/10/22 11:22:25;;;;;;;0.52;0.52;;;20.40;99.90;;;;;;5078134;28;20043;-63
2022/10/22 11:25:02;;;;;;;0.50;0.50;;;20.40;99.90;;;;;;5044786;28;20406;-63
2022/10/22 11:27:37;;;;;;;2.25;1.15;;;20.30;99.90;;;;;;5060783;28;20048;-61
2022/10/22 11:30:17;;;;;;;2.00;1.65;;;20.20;99.90;;;;;;5058043;28;20496;-61
2022/10/22 11:33:10;;;;;;;0.55;0.55;;;20.10;99.90;;;;;;5057313;28;20064;-62
2022/10/22 11:35:41;;;;;;;0.30;0.30;;;20.00;99.90;;;;;;5055914;28;20144;-61
2022/10/22 11:38:14;;;;;;;0.40;0.40;;;19.90;99.90;;;;;;5062304;28;20032;-65
2022/10/22 11:40:57;;;;;;;0.40;0.40;;;19.80;99.90;;;;;;5062677;28;20059;-64
2022/10/22 11:43:26;;;;;;;1.88;0.70;;;19.90;99.90;;;;;;5057481;28;20048;-65
2022/10/22 11:46:15;;;;;;;1.67;1.20;;;20.00;99.90;;;;;;5057993;28;20052;-60
2022/10/22 11:48:43;;;;;;;0.50;0.50;;;20.20;99.90;;;;;;5043107;28;20158;-65
2022/10/22 11:51:28;;;;;;;;;;;20.20;99.90;;;;;;5056355;28;20381;-61
2022/10/22 11:53:57;;;;;;;0.60;0.60;;;20.30;99.90;;;;;;5059475;28;19928;-63
2022/10/22 11:56:26;;;;;;;3.45;2.00;;;20.40;99.90;;;;;;5057512;28;20062;-61
2022/10/22 11:58:54;;;;;;;7.63;2.67;;;20.40;99.90;;;;;;5053565;28;20155;-65
2022/10/22 12:01:25;;;;;;;5.75;3.67;;;20.40;99.90;;;;;;5058492;28;20149;-62
2022/10/22 12:04:17;;;;;;;29.70;7.38;;;20.40;99.90;;;;;;5060392;28;20076;-64
2022/10/22 12:06:59;;;;;;;7.05;4.30;;;20.60;99.90;;;;;;5054425;28;20075;-61
2022/10/22 12:09:30;;;;;;;9.52;6.25;;;20.60;99.90;;;;;;5040765;28;20155;-59
2022/10/22 12:12:13;;;;;;;13.35;7.47;;;20.60;99.90;;;;;;5055549;28;20045;-63
2022/10/22 12:14:58;;;;;;;21.15;9.45;;;20.60;99.90;;;;;;5056711;28;20053;-56
2022/10/22 12:17:28;;;;;;;14.93;5.63;;;20.70;99.90;;;;;;5058224;28;20056;-62
2022/10/22 12:20:06;;;;;;;14.98;8.20;;;20.70;99.90;;;;;;5061392;28;20094;-64
2022/10/22 12:22:36;;;;;;;15.50;8.90;;;20.70;99.90;;;;;;5062565;28;20044;-63
2022/10/22 12:25:23;;;;;;;18.30;9.07;;;20.70;99.90;;;;;;5060633;28;20059;-63
2022/10/22 12:27:57;;;;;;;21.55;9.40;;;20.70;99.90;;;;;;5055814;28;20052;-63
2022/10/22 12:30:33;;;;;;;19.50;9.00;;;20.70;99.90;;;;;;5040121;28;20049;-63
2022/10/22 12:33:03;;;;;;;14.82;8.65;;;20.70;99.90;;;;;;5068214;28;20059;-61
2022/10/22 12:35:34;;;;;;;25.60;7.07;;;20.70;99.90;;;;;;5059769;28;20048;-61
2022/10/22 12:38:11;;;;;;;9.65;6.55;;;20.70;99.90;;;;;;5064332;28;20049;-62
2022/10/22 12:40:40;;;;;;;14.15;7.50;;;20.80;99.90;;;;;;5050902;28;20044;-64
2022/10/22 12:43:28;;;;;;;16.25;9.02;;;20.70;99.90;;;;;;5023130;28;20048;-63
2022/10/22 12:45:58;;;;;;;22.40;9.30;;;20.80;99.90;;;;;;5046610;28;20546;-66
2022/10/22 12:48:34;;;;;;;15.63;7.43;;;20.80;99.90;;;;;;5039207;28;21579;-67
2022/10/22 12:51:06;;;;;;;14.40;8.55;;;20.80;99.90;;;;;;5064306;28;20048;-66
2022/10/22 12:53:55;;;;;;;9.90;6.20;;;20.70;99.90;;;;;;5058404;28;21667;-64
2022/10/22 12:56:27;;;;;;;11.27;6.38;;;20.80;99.90;;;;;;5028541;28;20048;-64
2022/10/22 12:59:01;;;;;;;17.45;7.55;;;20.80;99.90;;;;;;5034920;28;20045;-62
2022/10/22 13:01:35;;;;;;;16.52;6.93;;;20.80;99.90;;;;;;5055510;28;20509;-61
2022/10/22 13:04:32;;;;;;;14.18;7.13;;;20.90;99.90;;;;;;5055771;28;20607;-63
2022/10/22 13:07:05;;;;;;;;;;;20.80;99.90;;;;;;5053070;28;20411;-61
2022/10/22 13:09:38;;;;;;;12.00;6.05;;;20.80;99.90;;;;;;5059470;28;20127;-59
2022/10/22 13:12:09;;;;;;;39.90;8.43;;;20.80;99.90;;;;;;5057032;28;20444;-61
2022/10/22 13:14:37;;;;;;;14.90;5.43;;;20.90;99.90;;;;;;5048266;28;20765;-62
2022/10/22 13:17:16;;;;;;;14.25;8.13;;;20.90;99.90;;;;;;5060982;28;20467;-62
2022/10/22 13:19:52;;;;;;;14.10;9.60;;;20.90;99.90;;;;;;5054080;28;20052;-61